Time;durP1;ratioP1;P1;durP2;ratioP2;P2;SDS_P1;SDS_P2;PMS_P1;PMS_P2;Temp;Humidity;BMP_temperature;BMP_pressure;BME280_temperature;BME280_humidity;BME280_pressure;Samples;Min_cycle;Max_cycle;Signal;HPM_P1;HPM_P2
2022/08/08 00:02:14;;;;;;;;;;;;;;;18.02;68.36;102349.72;5073412;28;19927;-59
2022/08/08 00:05:02;;;;;;;;;;;;;;;18.02;68.37;102355.22;5041616;28;20360;-58
2022/08/08 00:07:38;;;;;;;;;;;;;;;18.06;68.20;102348.00;5073476;28;19920;-55
2022/08/08 00:10:11;;;;;;;;;;;;;;;18.09;68.12;102348.28;5071919;28;20041;-58
2022/08/08 00:12:42;;;;;;;;;;;;;;;17.82;69.29;102356.09;5058929;28;19920;-55
2022/08/08 00:15:15;;;;;;;;;;;;;;;17.76;69.69;102355.25;5042684;28;20383;-56
2022/08/08 00:17:51;;;;;;;;;;;;;;;17.72;69.84;102345.88;5056835;28;20010;-59
2022/08/08 00:20:33;;;;;;;;;;;;;;;17.76;69.55;102357.19;5056140;28;19929;-57
2022/08/08 00:23:10;;;;;;;;;;;;;;;17.80;69.90;102353.63;5072552;28;19920;-56
2022/08/08 00:25:42;;;;;;;;;;;;;;;17.86;69.46;102358.00;5073006;28;19943;-57
2022/08/08 00:28:18;;;;;;;;;;;;;;;17.88;69.41;102357.75;5056629;28;20457;-61
2022/08/08 00:31:04;;;;;;;;;;;;;;;17.87;69.34;102354.16;5072397;28;19974;-58
2022/08/08 00:36:57;;;;;;;;;;;;;;;17.87;69.25;102350.56;5055356;28;19924;-58
2022/08/08 00:39:40;;;;;;;;;;;;;;;17.81;69.92;102354.44;5025985;28;20278;-53
2022/08/08 00:43:03;;;;;;;;;;;;;;;17.83;69.61;102358.56;5024082;28;19950;-56
2022/08/08 00:45:52;;;;;;;;;;;;;;;17.81;69.60;102352.50;4965273;28;19933;-54
2022/08/08 00:48:37;;;;;;;;;;;;;;;17.77;69.69;102354.13;5058190;28;19927;-56
2022/08/08 00:51:08;;;;;;;;;;;;;;;17.75;70.10;102342.59;5072194;28;20374;-58
2022/08/08 00:53:50;;;;;;;;;;;;;;;17.70;70.24;102337.06;5064257;28;19971;-54
2022/08/08 00:56:43;;;;;;;;;;;;;;;17.65;70.35;102335.16;5053957;28;19935;-57
2022/08/08 00:59:12;;;;;;;;;;;;;;;17.52;71.16;102340.41;5054961;28;19960;-57
2022/08/08 01:01:54;;;;;;;;;;;;;;;17.43;71.69;102343.72;5051789;28;20310;-57
2022/08/08 01:04:37;;;;;;;;;;;;;;;17.38;71.97;102335.47;5055365;28;20003;-56
2022/08/08 01:07:34;;;;;;;;;;;;;;;17.40;71.82;102336.00;5055029;28;19927;-58
2022/08/08 01:10:42;;;;;;;;;;;;;;;17.48;71.51;102339.31;5031424;28;20263;-57
2022/08/08 01:13:36;;;;;;;;;;;;;;;17.46;71.52;102337.69;5065916;28;19967;-52
2022/08/08 01:16:13;;;;;;;;;;;;;;;17.46;71.90;102329.41;5058121;28;19924;-57
2022/08/08 01:19:03;;;;;;;;;;;;;;;17.40;72.30;102337.94;5058739;28;19920;-54
2022/08/08 01:21:52;;;;;;;;;;;;;;;17.25;73.04;102331.34;5057352;28;20417;-56
2022/08/08 01:24:59;;;;;;;;;;;;;;;17.31;73.04;102337.66;5074624;28;19921;-56
2022/08/08 01:27:29;;;;;;;;;;;;;;;17.34;73.09;102334.38;5058155;28;20007;-55
2022/08/08 01:30:34;;;;;;;;;;;;;;;17.23;73.11;102335.47;5041380;28;19920;-58
2022/08/08 01:33:03;;;;;;;;;;;;;;;17.18;73.57;102346.50;4996712;28;20365;-57
2022/08/08 01:35:57;;;;;;;;;;;;;;;17.21;73.56;102337.69;5073241;28;19921;-58
2022/08/08 01:38:32;;;;;;;;;;;;;;;17.22;73.55;102333.81;5058800;28;19920;-59
2022/08/08 01:41:16;;;;;;;;;;;;;;;17.16;74.21;102337.69;5057789;28;20442;-58
2022/08/08 01:43:44;;;;;;;;;;;;;;;17.13;74.89;102343.75;5042009;28;19924;-57
2022/08/08 01:46:39;;;;;;;;;;;;;;;17.16;74.72;102340.44;5057868;28;19927;-58
2022/08/08 01:49:11;;;;;;;;;;;;;;;17.22;74.27;102339.31;4998034;28;19982;-59
2022/08/08 01:51:57;;;;;;;;;;;;;;;17.16;74.42;102345.94;5056194;28;20317;-53
2022/08/08 01:54:48;;;;;;;;;;;;;;;17.17;74.67;102339.31;5057003;28;19920;-55
2022/08/08 01:57:41;;;;;;;;;;;;;;;17.23;74.51;102343.75;5057934;28;19943;-57
2022/08/08 02:00:36;;;;;;;;;;;;;;;17.16;74.55;102333.00;5043623;28;20007;-57
2022/08/08 02:03:19;;;;;;;;;;;;;;;17.08;74.92;102339.06;5058073;28;19931;-55
2022/08/08 02:06:12;;;;;;;;;;;;;;;17.07;74.98;102339.34;5057271;28;20019;-59
2022/08/08 02:09:19;;;;;;;;;;;;;;;17.03;75.21;102337.13;5047044;28;19920;-57
2022/08/08 02:12:13;;;;;;;;;;;;;;;17.07;75.19;102342.91;5056642;28;19925;-56
2022/08/08 02:14:54;;;;;;;;;;;;;;;17.09;74.93;102337.94;5041939;28;19920;-54
2022/08/08 02:17:45;;;;;;;;;;;;;;;17.10;74.82;102339.63;5041728;28;20466;-54
2022/08/08 02:20:20;;;;;;;;;;;;;;;17.10;74.71;102339.63;5055199;28;20329;-58
2022/08/08 02:23:12;;;;;;;;;;;;;;;17.00;74.74;102337.69;5057385;28;19955;-58
2022/08/08 02:25:48;;;;;;;;;;;;;;;16.92;75.16;102338.22;5075433;28;20417;-58
2022/08/08 02:28:39;;;;;;;;;;;;;;;16.87;75.67;102335.47;5055236;28;19920;-58
2022/08/08 02:31:25;;;;;;;;;;;;;;;16.87;75.82;102334.63;4999029;28;19920;-59
2022/08/08 02:34:16;;;;;;;;;;;;;;;16.88;75.70;102339.84;5040513;28;19974;-60
2022/08/08 02:37:07;;;;;;;;;;;;;;;16.88;75.83;102336.28;5039005;28;19927;-57
2022/08/08 02:39:55;;;;;;;;;;;;;;;16.85;76.15;102337.66;5055671;28;19920;-54
2022/08/08 02:42:37;;;;;;;;;;;;;;;16.94;75.94;102337.94;5057061;28;19920;-58
2022/08/08 02:45:14;;;;;;;;;;;;;;;16.96;75.35;102333.00;5075079;28;19951;-56
2022/08/08 02:48:01;;;;;;;;;;;;;;;16.92;75.17;102331.88;5041552;28;19920;-59
2022/08/08 02:50:33;;;;;;;;;;;;;;;16.89;75.56;102337.94;5055318;28;20320;-57
2022/08/08 02:53:06;;;;;;;;;;;;;;;16.88;76.18;102342.59;5057185;28;20421;-57
2022/08/08 02:55:42;;;;;;;;;;;;;;;16.86;75.77;102344.84;5040545;28;19931;-58
2022/08/08 02:58:32;;;;;;;;;;;;;;;16.80;76.35;102340.41;5036959;28;20275;-56
2022/08/08 03:01:18;;;;;;;;;;;;;;;16.80;76.25;102340.41;5052949;28;19920;-59
2022/08/08 03:03:55;;;;;;;;;;;;;;;16.84;76.56;102341.53;5076618;28;19974;-59
2022/08/08 03:07:02;;;;;;;;;;;;;;;16.85;76.21;102343.16;5059133;28;19931;-58
2022/08/08 03:09:53;;;;;;;;;;;;;;;16.78;76.39;102337.91;5071052;28;19931;-58
2022/08/08 03:12:26;;;;;;;;;;;;;;;16.72;77.00;102341.75;5050435;28;19931;-58
2022/08/08 03:15:33;;;;;;;;;;;;;;;16.73;77.06;102345.31;5042140;28;20395;-57
2022/08/08 03:18:24;;;;;;;;;;;;;;;16.73;76.65;102337.06;5075066;28;20590;-59
2022/08/08 03:21:00;;;;;;;;;;;;;;;16.69;76.92;102350.56;5053049;28;19926;-57
2022/08/08 03:23:35;;;;;;;;;;;;;;;16.68;77.20;102348.88;5069931;28;19950;-58
2022/08/08 03:26:24;;;;;;;;;;;;;;;16.68;76.85;102348.88;5056499;28;19924;-58
2022/08/08 03:28:55;;;;;;;;;;;;;;;16.67;77.09;102351.91;5039867;28;19928;-59
2022/08/08 03:34:29;;;;;;;;;;;;;;;16.51;78.19;102367.56;5061779;28;19920;-56
2022/08/08 03:36:58;;;;;;;;;;;;;;;16.49;77.85;102362.31;5037564;28;19921;-57
2022/08/08 03:39:25;;;;;;;;;;;;;;;16.49;78.10;102367.81;5055897;28;20019;-56
2022/08/08 03:41:53;;;;;;;;;;;;;;;16.49;77.77;102367.00;5054864;28;19920;-58
2022/08/08 03:44:41;;;;;;;;;;;;;;;16.50;77.74;102366.72;5044889;28;19920;-56
2022/08/08 03:47:20;;;;;;;;;;;;;;;16.46;77.84;102367.53;5040977;28;19920;-55
2022/08/08 03:49:52;;;;;;;;;;;;;;;16.45;77.89;102365.88;5055366;28;19973;-58
2022/08/08 03:52:30;;;;;;;;;;;;;;;16.46;78.50;102371.13;5055051;28;20321;-57
2022/08/08 03:55:07;;;;;;;;;;;;;;;16.45;78.46;102366.72;5056016;28;19927;-57
2022/08/08 03:57:55;;;;;;;;;;;;;;;16.50;78.13;102369.47;5050397;28;20027;-57
2022/08/08 04:00:48;;;;;;;;;;;;;;;16.37;78.62;102367.22;5069379;28;19966;-55
2022/08/08 04:03:35;;;;;;;;;;;;;;;16.32;78.46;102369.97;5071345;28;19924;-56
2022/08/08 04:06:23;;;;;;;;;;;;;;;16.29;79.16;102373.25;5054543;28;19924;-58
2022/08/08 04:08:58;;;;;;;;;;;;;;;16.34;79.15;102376.03;5040139;28;20282;-58
2022/08/08 04:11:38;;;;;;;;;;;;;;;16.39;78.86;102379.59;5040448;28;20430;-55
2022/08/08 04:14:35;;;;;;;;;;;;;;;16.27;79.18;102380.94;5052028;28;20357;-57
2022/08/08 04:17:05;;;;;;;;;;;;;;;16.23;79.18;102375.13;5068406;28;19959;-59
2022/08/08 04:19:55;;;;;;;;;;;;;;;16.25;79.34;102377.63;5049930;28;19920;-58
2022/08/08 04:22:25;;;;;;;;;;;;;;;16.24;79.41;102376.81;5042750;28;19924;-56
2022/08/08 04:24:57;;;;;;;;;;;;;;;16.25;79.01;102367.44;5054761;28;19920;-57
2022/08/08 04:27:25;;;;;;;;;;;;;;;16.22;79.31;102373.50;5055416;28;20389;-52
2022/08/08 04:30:14;;;;;;;;;;;;;;;16.19;79.35;102372.09;5055246;28;20420;-58
2022/08/08 04:32:47;;;;;;;;;;;;;;;16.28;79.14;102372.41;5045577;28;20011;-54
2022/08/08 04:35:19;;;;;;;;;;;;;;;16.42;78.49;102386.50;5055277;28;20019;-53
2022/08/08 04:37:50;;;;;;;;;;;;;;;16.50;77.85;102385.13;5055143;28;20011;-55
2022/08/08 04:40:21;;;;;;;;;;;;;;;16.56;76.82;102384.91;5055394;28;20327;-55
2022/08/08 04:42:55;;;;;;;;;;;;;;;16.58;77.25;102398.41;5053431;28;19925;-55
2022/08/08 04:45:48;;;;;;;;;;;;;;;16.52;78.20;102394.78;5061162;28;20382;-54
2022/08/08 04:48:17;;;;;;;;;;;;;;;16.45;78.36;102401.63;5059334;28;19951;-54
2022/08/08 04:50:49;;;;;;;;;;;;;;;16.46;77.91;102406.88;5058818;28;19920;-57
2022/08/08 04:53:28;;;;;;;;;;;;;;;16.46;77.73;102406.88;5058596;28;20367;-57
2022/08/08 04:56:16;;;;;;;;;;;;;;;16.46;77.92;102408.81;5041927;28;19920;-54
2022/08/08 04:58:44;;;;;;;;;;;;;;;16.44;78.69;102414.56;5059131;28;19950;-53
2022/08/08 05:01:15;;;;;;;;;;;;;;;16.46;78.19;102417.06;5058873;28;20366;-55
2022/08/08 05:03:48;;;;;;;;;;;;;;;16.45;78.04;102429.16;5057886;28;19921;-55
2022/08/08 05:06:40;;;;;;;;;;;;;;;16.35;79.58;102424.44;5053552;28;19920;-56
2022/08/08 05:09:09;;;;;;;;;;;;;;;16.29;80.16;102433.78;5058775;28;19928;-56
2022/08/08 05:11:40;;;;;;;;;;;;;;;16.28;80.67;102432.09;5058471;28;19940;-52
2022/08/08 05:14:12;;;;;;;;;;;;;;;16.33;80.42;102430.22;5040957;28;19928;-55
2022/08/08 05:16:46;;;;;;;;;;;;;;;16.36;80.32;102431.59;5042483;28;19939;-58
2022/08/08 05:19:28;;;;;;;;;;;;;;;16.37;80.62;102425.00;5058565;28;19927;-51
2022/08/08 05:22:18;;;;;;;;;;;;;;;16.40;80.36;102424.44;5058838;28;19920;-52
2022/08/08 05:24:49;;;;;;;;;;;;;;;16.40;80.57;102424.44;5041257;28;19950;-52
2022/08/08 05:27:20;;;;;;;;;;;;;;;16.40;80.93;102421.69;5057888;28;19929;-51
2022/08/08 05:29:49;;;;;;;;;;;;;;;16.38;81.23;102423.91;5057875;28;20387;-51
2022/08/08 05:32:21;;;;;;;;;;;;;;;16.36;81.52;102428.84;5058325;28;20299;-55
2022/08/08 05:34:57;;;;;;;;;;;;;;;16.35;81.86;102419.75;5020244;28;19921;-56
2022/08/08 05:37:32;;;;;;;;;;;;;;;16.36;82.29;102434.34;5057833;28;20014;-58
2022/08/08 05:40:24;;;;;;;;;;;;;;;16.30;82.91;102438.16;5039454;28;19924;-56
2022/08/08 05:43:02;;;;;;;;;;;;;;;16.29;82.96;102437.34;5030703;28;19927;-53
2022/08/08 05:45:51;;;;;;;;;;;;;;;16.29;83.03;102442.00;5056543;28;20448;-57
2022/08/08 05:48:28;;;;;;;;;;;;;;;16.29;83.59;102445.59;5034901;28;19928;-57
2022/08/08 05:50:59;;;;;;;;;;;;;;;16.27;83.75;102450.53;5057940;28;20378;-58
2022/08/08 05:53:44;;;;;;;;;;;;;;;16.27;84.10;102446.94;5050734;28;19927;-56
2022/08/08 05:56:33;;;;;;;;;;;;;;;16.30;84.17;102446.41;5054417;28;19982;-56
2022/08/08 05:59:06;;;;;;;;;;;;;;;16.32;84.14;102447.78;5057283;28;20431;-56
2022/08/08 06:01:41;;;;;;;;;;;;;;;16.30;84.32;102449.97;5042576;28;19920;-57
2022/08/08 06:04:26;;;;;;;;;;;;;;;16.34;84.69;102444.78;5057283;28;20400;-57
2022/08/08 06:06:59;;;;;;;;;;;;;;;16.38;84.63;102444.00;5031181;28;20030;-60
2022/08/08 06:09:35;;;;;;;;;;;;;;;16.43;84.62;102445.94;5068817;28;19920;-58
2022/08/08 06:12:23;;;;;;;;;;;;;;;16.49;84.01;102442.09;5039074;28;19974;-52
2022/08/08 06:14:59;;;;;;;;;;;;;;;16.60;83.69;102445.75;5050287;28;19927;-56
2022/08/08 06:17:26;;;;;;;;;;;;;;;16.55;84.42;102452.06;5040211;28;19952;-58
2022/08/08 06:20:14;;;;;;;;;;;;;;;16.49;84.73;102450.34;5056800;28;19935;-58
2022/08/08 06:22:46;;;;;;;;;;;;;;;16.54;84.58;102457.81;5020464;28;19920;-59
2022/08/08 06:25:18;;;;;;;;;;;;;;;16.52;84.99;102458.06;5039654;28;20290;-60
2022/08/08 06:28:14;;;;;;;;;;;;;;;16.50;84.83;102467.69;5053831;28;19927;-60
2022/08/08 06:30:43;;;;;;;;;;;;;;;16.50;85.13;102456.69;5040654;28;19965;-56
2022/08/08 06:33:11;;;;;;;;;;;;;;;16.59;84.63;102461.41;5054840;28;19920;-60
2022/08/08 06:35:48;;;;;;;;;;;;;;;16.71;84.24;102463.09;5041259;28;20030;-60
2022/08/08 06:38:36;;;;;;;;;;;;;;;16.82;83.88;102465.66;5054484;28;19920;-57
2022/08/08 06:41:09;;;;;;;;;;;;;;;16.83;83.59;102467.31;5055753;28;19920;-59
2022/08/08 06:43:40;;;;;;;;;;;;;;;16.86;83.50;102465.13;5037576;28;19927;-58
2022/08/08 06:46:18;;;;;;;;;;;;;;;16.85;84.12;102457.97;5055808;28;20421;-58
2022/08/08 06:48:53;;;;;;;;;;;;;;;16.87;83.72;102462.09;5038313;28;19928;-55
2022/08/08 06:51:22;;;;;;;;;;;;;;;16.92;83.71;102462.13;5056872;28;19920;-60
2022/08/08 06:53:58;;;;;;;;;;;;;;;16.99;83.25;102459.94;5056835;28;20367;-58
2022/08/08 06:56:35;;;;;;;;;;;;;;;17.04;83.09;102468.19;5030429;28;19925;-58
2022/08/08 06:59:05;;;;;;;;;;;;;;;17.06;82.85;102459.69;5039114;28;20023;-59
2022/08/08 07:01:44;;;;;;;;;;;;;;;17.10;82.61;102465.47;5052973;28;19989;-60
2022/08/08 07:04:42;;;;;;;;;;;;;;;17.14;82.36;102466.59;5042756;28;19924;-59
2022/08/08 07:07:22;;;;;;;;;;;;;;;17.18;82.11;102467.69;5038201;28;19921;-59
2022/08/08 07:09:57;;;;;;;;;;;;;;;17.20;81.71;102471.00;5052019;28;20291;-58
2022/08/08 07:12:40;;;;;;;;;;;;;;;17.25;81.11;102473.78;5056323;28;19924;-59
2022/08/08 07:15:14;;;;;;;;;;;;;;;17.29;80.79;102477.63;5055698;28;19920;-59
2022/08/08 07:18:06;;;;;;;;;;;;;;;17.33;80.16;102475.97;5056432;28;19959;-57
2022/08/08 07:20:57;;;;;;;;;;;;;;;17.41;78.93;102482.88;5039781;28;19921;-58
2022/08/08 07:23:38;;;;;;;;;;;;;;;17.48;79.63;102488.13;5040576;28;20390;-57
2022/08/08 07:26:26;;;;;;;;;;;;;;;17.52;79.69;102490.06;5042094;28;19925;-60
2022/08/08 07:29:03;;;;;;;;;;;;;;;17.54;79.76;102481.53;5044454;28;20370;-59
2022/08/08 07:31:34;;;;;;;;;;;;;;;17.60;79.10;102496.94;5038413;28;20386;-60
2022/08/08 07:34:03;;;;;;;;;;;;;;;17.56;78.99;102485.66;5056898;28;19921;-58
2022/08/08 07:36:37;;;;;;;;;;;;;;;17.58;79.26;102482.63;5056612;28;20442;-58
2022/08/08 07:39:21;;;;;;;;;;;;;;;17.62;79.20;102484.53;5055951;28;19920;-61
2022/08/08 07:41:57;;;;;;;;;;;;;;;17.65;78.67;102483.16;5055279;28;19920;-59
2022/08/08 07:44:33;;;;;;;;;;;;;;;17.66;78.47;102485.66;5056562;28;19920;-60
2022/08/08 07:47:08;;;;;;;;;;;;;;;17.73;78.71;102485.41;5056752;28;19962;-58
2022/08/08 07:49:38;;;;;;;;;;;;;;;17.79;77.65;102481.50;5020717;28;19955;-58
2022/08/08 07:52:08;;;;;;;;;;;;;;;17.91;76.74;102494.22;5052811;28;19943;-58
2022/08/08 07:54:56;;;;;;;;;;;;;;;17.96;76.72;102494.22;5041342;28;20228;-53
2022/08/08 07:57:44;;;;;;;;;;;;;;;17.96;75.88;102495.03;5031572;28;19921;-59
2022/08/08 08:00:17;;;;;;;;;;;;;;;17.98;76.15;102486.50;5050618;28;20011;-58
2022/08/08 08:03:05;;;;;;;;;;;;;;;18.02;75.59;102493.94;5037250;28;19998;-53
2022/08/08 08:05:41;;;;;;;;;;;;;;;18.02;75.65;102487.63;5036684;28;20260;-57
2022/08/08 08:08:18;;;;;;;;;;;;;;;18.04;75.48;102491.75;5037896;28;19920;-53
2022/08/08 08:10:50;;;;;;;;;;;;;;;18.11;75.34;102502.47;5039991;28;19920;-53
2022/08/08 08:13:21;;;;;;;;;;;;;;;18.17;74.80;102500.56;5039050;28;19927;-55
2022/08/08 08:15:53;;;;;;;;;;;;;;;18.20;73.90;102500.81;5055027;28;19982;-55
2022/08/08 08:18:21;;;;;;;;;;;;;;;18.21;74.28;102496.97;5073156;28;20413;-58
2022/08/08 08:21:02;;;;;;;;;;;;;;;18.26;73.98;102508.00;5055431;28;19920;-55
2022/08/08 08:23:40;;;;;;;;;;;;;;;18.33;72.20;102501.34;5055826;28;20016;-55
2022/08/08 08:26:17;;;;;;;;;;;;;;;18.39;72.49;102498.28;5037206;28;19970;-56
2022/08/08 08:28:54;;;;;;;;;;;;;;;18.47;71.39;102510.69;5037136;28;20389;-54
2022/08/08 08:31:21;;;;;;;;;;;;;;;18.48;70.87;102506.84;5055555;28;20012;-56
2022/08/08 08:33:49;;;;;;;;;;;;;;;18.48;71.34;102506.84;5055314;28;19924;-53
2022/08/08 08:36:19;;;;;;;;;;;;;;;18.53;70.95;102506.81;5039029;28;19993;-56
2022/08/08 08:38:53;;;;;;;;;;;;;;;18.52;71.38;102508.75;5055359;28;19962;-56
2022/08/08 08:41:36;;;;;;;;;;;;;;;18.54;70.15;102505.69;5055601;28;19925;-57
2022/08/08 08:44:04;;;;;;;;;;;;;;;18.61;69.99;102506.22;5034899;28;20012;-57
2022/08/08 08:46:41;;;;;;;;;;;;;;;18.69;70.15;102511.19;5031269;28;19938;-57
2022/08/08 08:49:18;;;;;;;;;;;;;;;18.72;70.46;102507.03;5055315;28;19966;-57
2022/08/08 08:51:46;;;;;;;;;;;;;;;18.73;69.36;102515.00;5055137;28;20015;-57
2022/08/08 08:54:20;;;;;;;;;;;;;;;18.84;69.06;102520.56;5054988;28;20374;-57
2022/08/08 08:56:53;;;;;;;;;;;;;;;18.89;69.11;102518.59;5055128;28;19970;-59
2022/08/08 08:59:22;;;;;;;;;;;;;;;18.92;67.83;102517.19;5054769;28;19988;-59
2022/08/08 09:02:16;;;;;;;;;;;;;;;18.90;68.23;102524.94;5041481;28;19920;-58
2022/08/08 09:04:45;;;;;;;;;;;;;;;18.96;68.32;102512.75;5054826;28;19935;-57
2022/08/08 09:07:21;;;;;;;;;;;;;;;19.01;68.03;102517.44;5036196;28;19921;-59
2022/08/08 09:09:52;;;;;;;;;;;;;;;18.99;67.56;102519.66;5051032;28;19926;-59
2022/08/08 09:12:27;;;;;;;;;;;;;;;19.01;67.80;102526.53;5039565;28;19951;-59
2022/08/08 09:14:57;;;;;;;;;;;;;;;19.03;68.13;102520.75;5039125;28;20001;-58
2022/08/08 09:17:30;;;;;;;;;;;;;;;18.99;67.88;102523.22;5054465;28;20371;-57
2022/08/08 09:20:18;;;;;;;;;;;;;;;18.95;67.91;102516.63;5040641;28;19921;-57
2022/08/08 09:23:05;;;;;;;;;;;;;;;18.96;67.80;102518.28;5054949;28;20286;-57
2022/08/08 09:25:51;;;;;;;;;;;;;;;18.94;67.77;102515.78;5054789;28;19971;-58
2022/08/08 09:28:30;;;;;;;;;;;;;;;18.97;67.45;102517.16;5054628;28;19920;-55
2022/08/08 09:31:13;;;;;;;;;;;;;;;19.10;66.48;102524.03;5054484;28;19928;-58
2022/08/08 09:33:44;;;;;;;;;;;;;;;19.23;65.77;102517.03;5042671;28;19967;-55
2022/08/08 09:36:33;;;;;;;;;;;;;;;19.27;65.20;102518.13;5044700;28;19920;-57
2022/08/08 09:39:03;;;;;;;;;;;;;;;19.24;65.18;102518.69;5058507;28;20270;-57
2022/08/08 09:41:50;;;;;;;;;;;;;;;19.19;65.04;102518.72;5058236;28;20466;-58
2022/08/08 09:44:43;;;;;;;;;;;;;;;19.19;64.95;102510.41;5049663;28;19927;-56
2022/08/08 09:47:11;;;;;;;;;;;;;;;19.27;65.18;102510.66;5075784;28;19943;-53
2022/08/08 09:49:59;;;;;;;;;;;;;;;19.39;64.46;102504.78;5061545;28;19920;-56
2022/08/08 09:52:31;;;;;;;;;;;;;;;19.46;63.58;102505.28;5058429;28;19940;-57
2022/08/08 09:55:19;;;;;;;;;;;;;;;19.50;62.51;102513.81;5066613;28;19921;-56
2022/08/08 09:58:14;;;;;;;;;;;;;;;19.51;61.54;102508.00;5066798;28;19927;-55
2022/08/08 10:01:36;;;;;;;6.18;1.90;;;;;;;19.61;61.72;102517.34;5110501;27;20387;-58
2022/08/08 10:04:26;;;;;;;3.67;1.70;;;;;;;19.67;61.74;102513.41;5106234;28;20042;-55
2022/08/08 10:07:12;;;;;;;3.10;1.50;;;;;;;19.69;60.05;102511.22;5108085;28;20063;-54
2022/08/08 10:09:43;;;;;;;3.75;1.48;;;;;;;19.67;60.02;102513.41;5104262;28;20048;-57
2022/08/08 10:12:38;;;;;;;3.30;1.50;;;;;;;19.69;60.22;102512.03;5109489;28;20517;-55
2022/08/08 10:15:35;;;;;;;3.58;1.48;;;;;;;19.75;60.23;102518.38;5109330;28;20040;-55
2022/08/08 10:18:05;;;;;;;3.85;1.80;;;;;;;19.77;60.87;102518.88;5109655;28;20059;-58
2022/08/08 10:20:46;;;;;;;6.88;1.80;;;;;;;19.76;60.30;102520.84;5109562;28;20089;-56
2022/08/08 10:23:33;;;;;;;4.63;1.88;;;;;;;19.74;59.16;102513.94;5110064;28;20513;-57
2022/08/08 10:26:16;;;;;;;4.07;1.80;;;;;;;19.72;59.48;102519.78;5109164;28;20093;-57
2022/08/08 10:29:04;;;;;;;4.32;2.05;;;;;;;19.74;59.86;102516.72;5110166;28;20043;-52
2022/08/08 10:34:22;;;;;;;5.00;1.90;;;;;;;19.77;59.78;102510.59;5109748;28;20532;-56
2022/08/08 10:36:55;;;;;;;4.75;2.00;;;;;;;19.79;59.85;102508.38;5109033;28;20044;-56
2022/08/08 10:39:28;;;;;;;4.80;1.98;;;;;;;19.80;60.16;102507.25;5110329;28;20059;-60
2022/08/08 10:42:11;;;;;;;3.72;1.83;;;;;;;19.89;59.35;102502.75;5108821;28;20046;-55
2022/08/08 10:44:43;;;;;;;3.50;1.70;;;;;;;20.01;58.89;102513.41;5110205;28;20048;-52
2022/08/08 10:47:19;;;;;;;3.78;1.65;;;;;;;20.04;58.58;102514.81;5109941;28;20146;-58
2022/08/08 10:49:55;;;;;;;3.17;1.65;;;;;;;20.04;57.88;102509.28;5109100;28;20039;-58
2022/08/08 10:52:33;;;;;;;4.90;1.65;;;;;;;20.00;58.25;102509.84;5106751;28;20040;-54
2022/08/08 10:55:12;;;;;;;3.00;1.45;;;;;;;19.99;58.54;102510.97;5098090;28;20044;-52
2022/08/08 10:57:45;;;;;;;9.30;1.77;;;;;;;20.03;58.52;102502.06;4385560;28;10000620;-56
2022/08/08 11:00:22;;;;;;;3.80;1.52;;;;;;;20.13;58.18;102504.75;5085768;28;20052;-57
2022/08/08 11:02:56;;;;;;;2.15;1.52;;;;;;;20.30;58.16;102502.38;5098605;28;20106;-55
2022/08/08 11:05:26;;;;;;;3.92;1.80;;;;;;;20.39;55.93;102497.81;5090322;28;20402;-57
2022/08/08 11:08:05;;;;;;;5.95;1.63;;;;;;;20.34;55.71;102497.88;5085834;28;20038;-55
2022/08/08 11:11:07;;;;;;;2.70;1.83;;;;;;;20.27;55.82;102497.41;5089973;28;20051;-56
2022/08/08 11:13:57;;;;;;;1.60;1.27;;;;;;;20.22;55.87;102497.44;5085868;28;20379;-57
2022/08/08 11:16:31;;;;;;;4.82;1.60;;;;;;;20.27;55.13;102489.09;5074535;28;20607;-58
2022/08/08 11:19:03;;;;;;;2.00;1.33;;;;;;;20.35;55.04;102482.94;5088610;28;20127;-54
2022/08/08 11:21:35;;;;;;;2.75;1.83;;;;;;;20.43;54.30;102487.81;5086913;28;20047;-58
2022/08/08 11:24:07;;;;;;;2.88;1.52;;;;;;;20.49;54.60;102490.50;5083095;28;20068;-58
2022/08/08 11:26:41;;;;;;;3.70;1.60;;;;;;;20.53;54.03;102477.75;5078608;28;20040;-57
2022/08/08 11:29:24;;;;;;;;;;;;;;;20.53;53.94;102478.56;5072862;28;20158;-55
2022/08/08 11:32:13;;;;;;;3.13;1.48;;;;;;;20.53;54.04;102478.56;5079109;28;19958;-57
2022/08/08 11:34:43;;;;;;;3.38;1.85;;;;;;;20.53;53.96;102486.03;5090604;28;20520;-56
2022/08/08 11:37:32;;;;;;;3.90;1.40;;;;;;;20.53;53.52;102473.03;5089937;28;20044;-57
2022/08/08 11:40:19;;;;;;;4.35;1.58;;;;;;;20.55;53.58;102476.34;5092141;28;20043;-60
2022/08/08 11:42:54;;;;;;;3.75;1.58;;;;;;;20.63;53.45;102472.09;5091802;28;20044;-58
2022/08/08 11:45:22;;;;;;;2.03;1.42;;;;;;;20.74;54.04;102476.41;5073732;28;20050;-56
2022/08/08 11:47:50;;;;;;;3.47;1.60;;;;;;;20.86;52.60;102481.50;5091555;28;20728;-61
2022/08/08 11:50:32;;;;;;;3.10;1.48;;;;;;;20.87;51.93;102476.78;5090388;28;20136;-59
2022/08/08 11:53:01;;;;;;;4.25;1.60;;;;;;;20.82;51.64;102474.91;5091472;28;20549;-57
2022/08/08 11:55:36;;;;;;;4.60;1.58;;;;;;;20.80;52.04;102472.41;5090318;28;20142;-56
2022/08/08 11:58:13;;;;;;;3.50;1.40;;;;;;;20.89;50.98;102458.75;5084238;28;20070;-59
2022/08/08 12:00:54;;;;;;;2.22;1.13;;;;;;;20.91;51.24;102466.78;5073984;28;20048;-57
2022/08/08 12:03:26;;;;;;;3.88;1.90;;;;;;;20.98;51.30;102456.97;5085801;28;20044;-55
2022/08/08 12:05:57;;;;;;;1.60;1.30;;;;;;;21.00;50.91;102460.25;5078562;28;20036;-60
2022/08/08 12:08:34;;;;;;;4.05;1.75;;;;;;;21.04;51.54;102460.47;5079249;28;20632;-58
2022/08/08 12:11:11;;;;;;;4.10;1.42;;;;;;;21.00;51.64;102456.66;5071624;28;20511;-54
2022/08/08 12:13:47;;;;;;;3.70;1.90;;;;;;;20.93;52.01;102467.28;5082020;28;20044;-56
2022/08/08 12:16:30;;;;;;;4.50;1.60;;;;;;;20.90;52.29;102474.25;5075707;28;20398;-57
2022/08/08 12:19:13;;;;;;;4.82;1.85;;;;;;;20.87;51.78;102465.72;5070511;28;20040;-55
2022/08/08 12:21:41;;;;;;;4.72;1.63;;;;;;;20.87;51.09;102460.16;5073606;28;20132;-56
2022/08/08 12:24:29;;;;;;;5.70;1.92;;;;;;;20.94;50.80;102450.34;5079330;28;20040;-56
2022/08/08 12:26:57;;;;;;;5.65;1.80;;;;;;;21.01;50.44;102450.81;5085364;28;20480;-53
2022/08/08 12:29:31;;;;;;;4.10;1.65;;;;;;;21.08;49.92;102455.16;5071135;28;20410;-53
2022/08/08 12:32:13;;;;;;;5.63;1.88;;;;;;;21.14;49.12;102454.81;5071116;28;20032;-54
2022/08/08 12:35:02;;;;;;;3.28;1.50;;;;;;;21.19;49.21;102451.94;5076483;28;20047;-55
2022/08/08 12:37:47;;;;;;;4.05;1.58;;;;;;;21.31;48.32;102443.16;5077000;28;20036;-55
2022/08/08 12:40:48;;;;;;;3.63;1.80;;;;;;;21.36;50.15;102451.41;5079448;28;20037;-58
2022/08/08 12:43:29;;;;;;;6.07;1.98;;;;;;;21.45;51.32;102465.41;5081876;28;20051;-58
2022/08/08 12:45:59;;;;;;;6.45;2.10;;;;;;;21.42;51.71;102447.44;5080829;28;20613;-56
2022/08/08 12:48:30;;;;;;;4.95;1.70;;;;;;;21.40;51.10;102454.41;5077738;28;20059;-55
2022/08/08 12:51:06;;;;;;;7.53;2.20;;;;;;;21.31;51.22;102453.41;5082979;28;20070;-56
2022/08/08 12:53:57;;;;;;;4.68;1.95;;;;;;;21.25;51.34;102459.03;5073632;28;20051;-53
2022/08/08 12:56:33;;;;;;;3.80;1.85;;;;;;;21.31;51.29;102458.97;5064803;28;20064;-56
2022/08/08 12:59:12;;;;;;;5.43;1.98;;;;;;;21.34;51.12;102453.66;5062573;28;20036;-56
2022/08/08 13:01:41;;;;;;;4.05;1.80;;;;;;;21.43;51.22;102454.66;5079269;28;20082;-57
2022/08/08 13:04:21;;;;;;;4.38;2.00;;;;;;;21.58;50.20;102453.56;5073528;28;20432;-57
2022/08/08 13:07:04;;;;;;;4.68;1.75;;;;;;;21.72;49.04;102450.84;5079307;28;20452;-57
2022/08/08 13:09:36;;;;;;;7.03;1.92;;;;;;;21.77;48.99;102455.44;5074031;28;20131;-55
2022/08/08 13:12:29;;;;;;;7.55;2.38;;;;;;;21.63;48.49;102439.59;5077762;28;20041;-58
2022/08/08 13:14:59;;;;;;;7.53;2.47;;;;;;;21.57;49.26;102451.09;5083249;28;20126;-56
2022/08/08 13:17:29;;;;;;;5.78;1.52;;;;;;;21.58;49.31;102442.47;5076716;28;20036;-56
2022/08/08 13:20:18;;;;;;;7.18;2.45;;;;;;;21.68;49.23;102433.16;5073473;28;20403;-56
2022/08/08 13:22:47;;;;;;;4.03;2.13;;;;;;;21.79;49.49;102436.56;5082030;28;20059;-56
2022/08/08 13:25:16;;;;;;;4.13;1.90;;;;;;;21.84;50.24;102434.53;5086602;28;20036;-54
2022/08/08 13:27:44;;;;;;;5.28;2.30;;;;;;;21.98;49.27;102439.25;5080696;28;20525;-56